Date,TemperatureHighF,TemperatureAvgF,TemperatureLowF,DewpointHighF,DewpointAvgF,DewpointLowF,HumidityHigh,HumidityAvg,HumidityLow,PressureMaxIn,PressureMinIn,WindSpeedMaxMPH,WindSpeedAvgMPH,GustSpeedMaxMPH,PrecipitationSumIn
2014-3-1,49.7,30.6,20.9,35.9,23.8,15.9,86,76,57,30.03,29.95,3,0,4,0.00
2014-3-2,44.1,25.5,14.8,30.9,18.8,10.0,87,76,56,29.96,29.82,2,0,3,0.00
2014-3-3,48.6,25.2,13.3,30.7,17.4,8.6,84,73,48,29.87,29.80,4,0,4,0.00
2014-3-4,37.6,29.6,20.2,23.9,19.3,14.3,78,66,55,29.88,29.76,9,1,9,0.00
2014-3-5,36.0,30.4,26.1,29.2,23.2,17.1,83,75,62,29.76,29.68,3,0,5,0.00
2014-3-6,31.3,24.5,12.6,24.5,19.1,6.7,86,80,73,29.73,29.68,0,0,0,0.00
2014-3-7,39.1,17.4,5.8,24.5,9.4,0.4,85,72,50,29.72,29.26,1,0,2,0.00
2014-3-8,39.4,14.3,-0.2,21.2,4.7,-6.3,81,67,43,29.26,29.04,3,0,4,0.00
2014-3-9,42.1,15.3,0.4,21.3,4.5,-6.4,79,64,38,29.44,29.11,2,0,3,0.00
2014-3-10,41.8,27.4,11.0,32.8,19.3,1.3,88,72,60,29.53,28.95,19,4,23,0.00
2014-3-11,45.0,38.2,34.7,36.6,33.4,31.2,91,83,72,29.19,28.99,23,9,23,0.00
2014-3-12,43.4,35.9,31.0,33.0,27.2,18.8,88,72,48,29.58,29.17,20,6,21,0.00
2014-3-13,45.2,41.0,36.9,35.6,31.7,24.3,79,69,58,29.46,29.05,16,6,21,0.00
2014-3-14,45.5,38.8,23.8,34.7,30.0,19.9,86,71,57,29.51,28.97,16,7,17,0.00
2014-3-15,42.7,23.2,13.5,21.1,14.0,4.9,85,70,32,29.80,29.51,9,2,11,0.00
2014-3-16,37.8,20.4,8.1,19.9,9.4,1.5,76,63,45,29.73,29.64,18,4,19,0.00
2014-3-17,48.6,35.0,29.9,29.6,21.1,15.8,69,57,38,29.71,29.63,16,3,21,0.00
2014-3-18,47.5,32.4,25.6,26.7,18.9,14.8,66,58,42,30.00,29.71,5,1,6,0.00
2014-3-19,47.9,30.1,20.5,23.8,18.3,13.7,84,63,35,30.22,30.00,6,1,7,0.00
2014-3-20,51.3,28.4,15.1,25.0,14.2,9.1,80,58,28,30.32,30.22,10,1,12,0.00
2014-3-21,54.4,32.3,20.9,25.7,13.0,7.6,61,46,28,30.36,30.31,6,1,6,0.00
2014-3-22,50.9,29.9,16.4,24.4,13.0,7.3,72,51,31,30.49,30.35,4,0,5,0.00
2014-3-23,50.0,30.1,16.0,20.5,11.9,6.2,69,49,27,30.50,30.34,4,0,4,0.00
2014-3-24,54.4,30.9,15.7,23.1,13.1,7.9,74,51,25,30.35,29.92,4,0,6,0.00
2014-3-25,55.3,32.8,18.2,24.7,13.1,7.7,67,46,24,29.92,29.72,4,0,4,0.00
2014-3-26,53.3,32.6,19.8,23.3,13.2,9.0,66,47,24,29.79,29.72,5,0,5,0.00
2014-3-27,53.3,32.2,18.9,24.6,12.8,6.7,66,46,25,29.84,29.79,4,0,5,0.00
2014-3-28,51.8,32.4,20.3,22.2,13.2,6.9,62,46,28,29.86,29.74,5,0,6,0.00
2014-3-29,52.0,31.9,18.9,22.0,13.4,7.9,69,48,28,29.87,29.74,5,0,6,0.00
2014-3-30,53.3,32.6,19.4,23.6,13.5,7.9,64,47,27,30.08,29.88,4,0,6,0.00
2014-3-31,53.6,33.0,19.8,23.1,14.9,9.3,69,49,28,30.13,30.01,5,0,5,0.00